Time;durP1;ratioP1;P1;durP2;ratioP2;P2;SDS_P1;SDS_P2;PMS_P1;PMS_P2;Temp;Humidity;BMP_temperature;BMP_pressure;BME280_temperature;BME280_humidity;BME280_pressure;Samples;Min_cycle;Max_cycle;Signal;HPM_P1;HPM_P2
2024/02/27 00:01:41;;;;;;;2.47;0.90;;;;;;;7.97;67.12;97610.97;4972716;28;102781;-65
2024/02/27 00:04:09;;;;;;;4.18;0.85;;;;;;;8.19;66.35;97608.47;4994492;28;103341;-65
2024/02/27 00:06:37;;;;;;;1.02;0.80;;;;;;;8.21;67.04;97609.13;4976189;28;105569;-65
2024/02/27 00:09:13;;;;;;;1.60;0.80;;;;;;;8.32;65.86;97605.22;4992202;28;103640;-65
2024/02/27 00:11:41;;;;;;;1.75;0.88;;;;;;;8.27;66.27;97616.31;4987813;28;102795;-65
2024/02/27 00:14:09;;;;;;;2.10;0.90;;;;;;;8.28;66.24;97618.78;4975547;28;103118;-65
2024/02/27 00:16:48;;;;;;;1.17;0.80;;;;;;;8.38;66.33;97622.97;4986068;28;103722;-65
2024/02/27 00:19:18;;;;;;;1.10;0.70;;;;;;;8.52;65.43;97629.28;4992526;28;103219;-65
2024/02/27 00:21:46;;;;;;;3.45;0.70;;;;;;;8.59;65.09;97624.91;4990733;28;102747;-65
2024/02/27 00:24:14;;;;;;;1.95;0.75;;;;;;;8.65;65.43;97632.13;4989823;28;103997;-65
2024/02/27 00:26:42;;;;;;;1.27;0.70;;;;;;;8.68;65.51;97650.22;4986112;28;103165;-65
2024/02/27 00:29:10;;;;;;;0.50;0.50;;;;;;;8.67;65.87;97642.47;4987547;28;103312;-65
2024/02/27 00:31:38;;;;;;;1.83;0.70;;;;;;;8.64;65.93;97643.66;4998525;28;102741;-65
2024/02/27 00:34:06;;;;;;;1.45;0.68;;;;;;;8.64;66.31;97648.94;4992925;28;102748;-65
2024/02/27 00:36:40;;;;;;;1.17;0.70;;;;;;;8.52;66.16;97650.41;4996456;28;103341;-66
2024/02/27 00:39:08;;;;;;;1.98;0.60;;;;;;;8.30;67.90;97655.50;4993166;28;104283;-65
2024/02/27 00:41:40;;;;;;;1.77;0.70;;;;;;;7.95;69.16;97650.72;4991538;28;103052;-65
2024/02/27 00:44:13;;;;;;;0.38;0.38;;;;;;;7.84;70.49;97656.38;4993885;28;102766;-66
2024/02/27 00:46:46;;;;;;;0.98;0.60;;;;;;;8.02;69.77;97660.53;4991679;28;103197;-65
2024/02/27 00:49:14;;;;;;;1.45;0.80;;;;;;;8.17;68.95;97660.59;4992270;28;103281;-65
2024/02/27 00:51:44;;;;;;;0.90;0.52;;;;;;;8.17;69.48;97665.88;4986260;28;102886;-65
2024/02/27 00:54:12;;;;;;;2.33;0.60;;;;;;;8.21;69.60;97682.97;4994825;28;102529;-65
2024/02/27 00:56:40;;;;;;;2.97;0.77;;;;;;;8.07;70.57;97679.28;4975997;28;105442;-65
2024/02/27 00:59:08;;;;;;;0.75;0.60;;;;;;;8.22;70.19;97692.53;4991681;28;103815;-66
2024/02/27 01:01:36;;;;;;;0.90;0.70;;;;;;;8.28;69.49;97697.09;4971460;28;102736;-67
2024/02/27 01:04:04;;;;;;;1.60;0.82;;;;;;;7.94;71.85;97698.34;4991373;28;102609;-66
2024/02/27 01:06:33;;;;;;;1.75;0.88;;;;;;;7.95;71.68;97692.06;4991232;28;103286;-66
2024/02/27 01:09:06;;;;;;;4.55;1.40;;;;;;;7.61;73.04;97686.19;4994649;28;103397;-66
2024/02/27 01:11:36;;;;;;;4.05;1.40;;;;;;;7.60;73.44;97683.75;4994139;28;103521;-66
2024/02/27 01:14:04;;;;;;;2.10;1.35;;;;;;;7.49;73.37;97694.66;4995408;28;103206;-66
2024/02/27 01:16:32;;;;;;;3.65;1.48;;;;;;;7.57;73.79;97699.88;4990846;28;103220;-66
2024/02/27 01:19:00;;;;;;;3.15;1.52;;;;;;;7.55;73.40;97699.25;4977376;28;103538;-66
2024/02/27 01:21:28;;;;;;;2.60;1.80;;;;;;;7.42;74.37;97703.25;4975277;28;102865;-66
2024/02/27 01:23:55;;;;;;;6.57;2.00;;;;;;;7.36;74.80;97701.31;4988476;28;103003;-66
2024/02/27 01:26:25;;;;;;;4.10;2.08;;;;;;;7.40;74.51;97700.00;4990393;28;104471;-65
2024/02/27 01:28:53;;;;;;;4.75;2.05;;;;;;;7.34;75.26;97700.66;4990747;28;103528;-65
2024/02/27 01:31:21;;;;;;;6.65;2.08;;;;;;;7.27;75.23;97702.34;4992088;28;102814;-64
2024/02/27 01:33:51;;;;;;;4.78;2.55;;;;;;;7.21;75.58;97705.66;4992312;28;103132;-65
2024/02/27 01:36:20;;;;;;;3.63;2.15;;;;;;;7.24;75.01;97690.31;4985087;28;103432;-65
2024/02/27 01:38:48;;;;;;;3.40;2.22;;;;;;;7.22;74.98;97696.75;4987641;28;103016;-65
2024/02/27 01:41:16;;;;;;;4.20;2.38;;;;;;;7.16;75.41;97692.19;4984968;28;103884;-65
2024/02/27 01:43:45;;;;;;;4.72;2.50;;;;;;;7.01;76.55;97690.28;4985129;28;102699;-65
2024/02/27 01:46:17;;;;;;;5.53;2.60;;;;;;;7.01;76.85;97684.16;4966695;22;105289;-66
2024/02/27 01:48:47;;;;;;;4.72;2.33;;;;;;;6.93;76.58;97674.47;4951962;28;103266;-66
2024/02/27 01:51:16;;;;;;;5.18;2.50;;;;;;;6.95;77.14;97683.03;4951339;28;102662;-65
2024/02/27 01:53:50;;;;;;;5.07;2.30;;;;;;;6.97;76.43;97676.63;4952511;28;102652;-65
2024/02/27 01:56:20;;;;;;;4.90;2.40;;;;;;;7.03;76.67;97672.47;4948484;28;103293;-65
2024/02/27 01:58:50;;;;;;;5.35;2.17;;;;;;;6.99;76.44;97671.19;4954503;28;103257;-65
2024/02/27 02:01:20;;;;;;;5.25;2.22;;;;;;;7.15;75.78;97672.91;4953449;28;102717;-66
2024/02/27 02:03:51;;;;;;;4.80;2.05;;;;;;;7.12;75.96;97681.97;4954774;28;103981;-65
2024/02/27 02:06:21;;;;;;;4.25;2.30;;;;;;;7.35;75.05;97690.94;4949361;28;103155;-65
2024/02/27 02:08:50;;;;;;;5.53;2.60;;;;;;;7.17;75.67;97685.94;4934763;28;105306;-66
2024/02/27 02:11:18;;;;;;;4.80;2.15;;;;;;;7.28;75.45;97677.63;4958327;22;102780;-66
2024/02/27 02:13:46;;;;;;;5.40;2.40;;;;;;;7.13;76.08;97683.63;4948403;28;104293;-66
2024/02/27 02:16:15;;;;;;;7.20;3.03;;;;;;;7.12;75.54;97691.72;4949656;28;103769;-66
2024/02/27 02:18:44;;;;;;;6.72;2.67;;;;;;;7.10;75.40;97691.03;4941293;28;105883;-66
2024/02/27 02:21:13;;;;;;;8.50;3.38;;;;;;;7.05;75.77;97706.53;4953972;28;103273;-66
2024/02/27 02:23:43;;;;;;;5.60;3.35;;;;;;;6.92;76.13;97701.81;4951322;28;102692;-66
2024/02/27 02:26:12;;;;;;;6.18;3.30;;;;;;;6.86;76.36;97707.75;4947970;28;103278;-67
2024/02/27 02:28:41;;;;;;;8.13;3.70;;;;;;;6.86;75.73;97718.28;4952588;28;103381;-66
2024/02/27 02:31:09;;;;;;;6.78;3.60;;;;;;;6.95;75.96;97718.06;4950267;28;102905;-66
2024/02/27 02:33:39;;;;;;;8.07;4.00;;;;;;;6.95;75.37;97725.97;4947413;28;102694;-66
2024/02/27 02:36:08;;;;;;;7.28;4.18;;;;;;;6.90;75.04;97720.41;4952525;28;103410;-66
2024/02/27 02:38:37;;;;;;;7.03;3.85;;;;;;;6.95;75.21;97719.91;4949681;28;103313;-66
2024/02/27 02:41:06;;;;;;;7.85;3.88;;;;;;;6.91;74.53;97726.50;4950994;28;102561;-65
2024/02/27 02:43:33;;;;;;;7.38;3.75;;;;;;;6.89;74.43;97728.47;4931998;28;102849;-66
2024/02/27 02:46:04;;;;;;;6.75;4.15;;;;;;;6.87;74.70;97715.47;4949438;28;103220;-65
2024/02/27 02:48:32;;;;;;;6.93;3.92;;;;;;;6.93;73.80;97719.25;4952432;28;103185;-65
2024/02/27 02:51:00;;;;;;;7.72;4.47;;;;;;;6.88;73.60;97705.78;4943957;28;102845;-65
2024/02/27 02:53:36;;;;;;;7.53;4.45;;;;;;;6.94;72.58;97727.00;4950809;28;102836;-65
2024/02/27 02:56:07;;;;;;;7.88;4.72;;;;;;;7.09;72.13;97721.84;4951560;28;103213;-65
2024/02/27 02:58:35;;;;;;;8.00;4.35;;;;;;;7.20;71.10;97735.63;4955485;28;103526;-66
2024/02/27 03:01:03;;;;;;;6.65;4.30;;;;;;;7.12;71.52;97755.72;4942638;28;103191;-65
2024/02/27 03:03:31;;;;;;;8.27;4.57;;;;;;;7.34;70.83;97748.09;4938102;28;103087;-66
2024/02/27 03:05:59;;;;;;;8.13;4.43;;;;;;;7.31;69.98;97758.97;4955523;28;104508;-65
2024/02/27 03:08:27;;;;;;;6.53;3.70;;;;;;;7.42;70.36;97755.94;4957678;28;103326;-65
2024/02/27 03:10:55;;;;;;;7.45;4.03;;;;;;;7.51;70.17;97762.00;4951626;28;102836;-65
2024/02/27 03:13:24;;;;;;;6.63;3.55;;;;;;;7.56;69.50;97745.66;4954525;28;103112;-65
2024/02/27 03:15:53;;;;;;;7.97;3.65;;;;;;;7.64;69.58;97750.91;4936243;28;105410;-66
2024/02/27 03:18:21;;;;;;;7.05;3.83;;;;;;;7.62;68.94;97759.00;4946112;28;106473;-65
2024/02/27 03:20:49;;;;;;;6.80;3.85;;;;;;;7.67;69.09;97758.47;4954912;28;102749;-66
2024/02/27 03:23:17;;;;;;;7.72;4.30;;;;;;;7.66;68.78;97759.47;4947094;28;103090;-66
2024/02/27 03:25:49;;;;;;;10.15;5.03;;;;;;;7.49;69.71;97761.34;4932907;28;106644;-65
2024/02/27 03:28:17;;;;;;;8.27;4.10;;;;;;;7.56;69.40;97766.75;4952383;28;103216;-66
2024/02/27 03:30:47;;;;;;;9.02;4.10;;;;;;;7.65;68.47;97771.00;4953413;28;102660;-65
2024/02/27 03:33:15;;;;;;;9.98;4.40;;;;;;;7.61;68.27;97774.97;4942982;28;102795;-65
2024/02/27 03:35:43;;;;;;;9.73;5.53;;;;;;;7.30;67.61;97781.84;4950323;28;103405;-65
2024/02/27 03:38:11;;;;;;;9.25;5.28;;;;;;;7.18;68.55;97779.72;4952941;28;103122;-65
2024/02/27 03:40:42;;;;;;;9.35;5.72;;;;;;;7.18;68.47;97774.47;4948548;28;102720;-65
2024/02/27 03:43:10;;;;;;;11.25;5.95;;;;;;;7.13;68.46;97782.88;4954520;28;102639;-65
2024/02/27 03:45:38;;;;;;;9.27;5.60;;;;;;;7.09;68.12;97782.41;4958800;28;103201;-65
2024/02/27 03:48:10;;;;;;;12.43;6.82;;;;;;;6.90;68.04;97782.75;4933112;28;106139;-65
2024/02/27 03:50:53;;;;;;;11.27;6.07;;;;;;;6.97;67.76;97783.75;4941676;28;102784;-65
2024/02/27 03:53:29;;;;;;;11.38;6.45;;;;;;;6.74;68.21;97786.25;4951538;28;102720;-65
2024/02/27 03:55:57;;;;;;;12.90;6.47;;;;;;;6.71;68.32;97794.47;4947903;28;103228;-64
2024/02/27 03:58:25;;;;;;;12.63;6.78;;;;;;;6.77;68.05;97804.31;4935873;28;106195;-65
2024/02/27 04:00:53;;;;;;;12.60;7.03;;;;;;;6.72;67.77;97804.84;4953608;28;102688;-64
2024/02/27 04:03:23;;;;;;;12.45;7.40;;;;;;;6.80;67.80;97815.34;4949806;28;102784;-65
2024/02/27 04:05:51;;;;;;;12.30;7.20;;;;;;;6.80;67.31;97812.72;4951787;28;103785;-65
2024/02/27 04:08:24;;;;;;;10.73;6.55;;;;;;;6.86;67.84;97813.03;4936440;28;105496;-65
2024/02/27 04:10:52;;;;;;;11.05;6.65;;;;;;;6.86;67.47;97805.97;4947168;28;105918;-65
2024/02/27 04:13:20;;;;;;;13.15;6.85;;;;;;;6.84;67.50;97804.47;4950132;28;102819;-64
2024/02/27 04:15:49;;;;;;;15.82;6.80;;;;;;;6.86;67.76;97800.69;4955706;28;103397;-64
2024/02/27 04:18:18;;;;;;;10.75;6.63;;;;;;;6.99;68.04;97805.44;4951444;28;103202;-64
2024/02/27 04:20:50;;;;;;;12.43;6.53;;;;;;;7.02;68.41;97818.28;4950246;28;103012;-65
2024/02/27 04:23:23;;;;;;;11.77;6.70;;;;;;;6.92;68.61;97807.94;4956223;28;102673;-65
2024/02/27 04:25:51;;;;;;;13.45;6.85;;;;;;;6.94;68.73;97816.50;4985328;22;105654;-65
2024/02/27 04:28:19;;;;;;;11.93;6.93;;;;;;;6.90;69.34;97820.41;4979922;28;103301;-65
2024/02/27 04:30:49;;;;;;;11.43;7.22;;;;;;;6.80;69.80;97814.53;4982966;28;102981;-65
2024/02/27 04:33:17;;;;;;;11.00;7.25;;;;;;;6.75;69.98;97815.03;4964384;28;102839;-64
2024/02/27 04:35:46;;;;;;;12.30;7.10;;;;;;;6.82;69.97;97814.38;4971122;28;103495;-65
2024/02/27 04:38:22;;;;;;;12.82;6.78;;;;;;;6.86;69.77;97820.94;4964471;28;105454;-65
2024/02/27 04:40:50;;;;;;;12.75;7.45;;;;;;;6.67;70.06;97832.59;4983387;28;102563;-64
2024/02/27 04:43:18;;;;;;;16.35;7.95;;;;;;;6.53;70.59;97829.66;4982418;28;103908;-65
2024/02/27 04:46:04;;;;;;;14.90;7.47;;;;;;;6.77;70.17;97830.63;4983694;28;103063;-65
2024/02/27 04:52:15;;;;;;;11.18;6.28;;;;;;;7.10;68.76;97841.13;4930182;28;103139;-65
2024/02/27 04:54:47;;;;;;;11.50;7.22;;;;;;;7.26;68.47;97853.47;4968689;28;102804;-65
2024/02/27 04:57:25;;;;;;;14.13;7.60;;;;;;;7.01;68.78;97850.03;4739089;28;10001378;-65
2024/02/27 04:59:53;;;;;;;11.23;6.47;;;;;;;7.15;68.62;97854.63;4446850;28;10104625;-64
2024/02/27 05:02:21;;;;;;;13.68;7.05;;;;;;;6.94;69.46;97853.34;4953251;28;106456;-65
2024/02/27 05:16:40;;;;;;;16.67;8.48;;;;;;;6.42;70.91;97888.66;4289570;28;10001067;-65
2024/02/27 05:19:09;;;;;;;13.27;8.38;;;;;;;6.28;71.63;97881.41;4950217;28;103362;-65
2024/02/27 05:21:37;;;;;;;16.90;9.35;;;;;;;6.33;70.87;97881.75;4940541;28;103439;-65
2024/02/27 05:24:06;;;;;;;17.15;8.75;;;;;;;6.34;70.70;97886.03;4893451;28;102850;-66
2024/02/27 05:26:59;;;;;;;18.45;8.77;;;;;;;6.36;71.37;97897.19;4954575;28;103199;-65
2024/02/27 05:29:28;;;;;;;15.90;8.75;;;;;;;6.39;71.18;97899.53;4965643;28;103262;-65
2024/02/27 05:48:36;;;;;;;12.25;7.50;;;;;;;6.34;71.66;97912.34;4912627;28;103795;-65
2024/02/27 05:55:24;;;;;;;16.60;8.68;;;;;;;6.34;71.94;97928.13;4909537;28;102854;-64
2024/02/27 05:57:53;;;;;;;15.32;8.98;;;;;;;6.32;71.67;97927.44;4925234;28;102664;-66
2024/02/27 06:00:22;;;;;;;17.50;9.85;;;;;;;6.22;71.60;97937.25;5004486;28;102588;-66
2024/02/27 06:02:50;;;;;;;17.55;10.15;;;;;;;6.22;71.91;97942.53;4981453;27;103919;-64
2024/02/27 06:05:18;;;;;;;19.85;11.15;;;;;;;6.13;71.98;97950.38;4985654;28;103197;-65
2024/02/27 06:07:51;;;;;;;18.65;10.23;;;;;;;6.24;71.35;97943.19;4974098;28;102742;-65
2024/02/27 06:10:19;;;;;;;15.63;10.15;;;;;;;6.33;71.44;97944.03;4962224;28;105029;-64
2024/02/27 06:12:50;;;;;;;17.90;11.02;;;;;;;6.13;71.66;97947.75;4986488;27;103213;-65
2024/02/27 06:15:20;;;;;;;17.83;11.10;;;;;;;6.11;72.16;97943.63;4994916;28;103532;-65
2024/02/27 06:18:18;;;;;;;17.65;11.20;;;;;;;6.15;71.66;97944.97;4963308;28;102708;-65
2024/02/27 06:23:32;;;;;;;18.08;11.13;;;;;;;6.19;72.22;97950.75;4962150;28;107968;-65
2024/02/27 06:26:00;;;;;;;17.08;11.65;;;;;;;6.08;71.87;97957.91;4992731;27;103483;-66
2024/02/27 06:28:28;;;;;;;17.92;11.48;;;;;;;6.31;71.70;97967.88;4107204;28;10001053;-64
2024/02/27 06:30:57;;;;;;;21.75;11.60;;;;;;;6.10;71.82;97974.34;4989333;28;102946;-65
2024/02/27 06:33:25;;;;;;;19.40;12.27;;;;;;;6.24;71.77;97972.13;4981269;28;102634;-64
2024/02/27 06:35:53;;;;;;;19.48;11.55;;;;;;;6.32;71.24;97977.41;4973195;28;102680;-65
2024/02/27 06:38:21;;;;;;;18.63;11.48;;;;;;;6.28;71.70;97983.97;4991737;28;103288;-65
2024/02/27 06:40:50;;;;;;;22.42;12.15;;;;;;;6.29;71.54;97975.09;4991127;27;103235;-65
2024/02/27 06:43:18;;;;;;;18.17;11.40;;;;;;;6.06;71.63;97980.09;4104891;28;10000986;-65
2024/02/27 06:45:48;;;;;;;19.50;11.52;;;;;;;6.20;72.00;97981.31;4992792;27;103339;-64
2024/02/27 06:48:18;;;;;;;19.70;11.63;;;;;;;6.23;71.25;97981.00;4994702;28;102637;-65
2024/02/27 06:50:46;;;;;;;19.08;11.82;;;;;;;6.14;71.04;97986.22;4993729;28;102734;-65
2024/02/27 06:53:15;;;;;;;21.00;12.40;;;;;;;6.09;71.44;97977.97;4973793;28;105931;-65
2024/02/27 06:55:43;;;;;;;23.55;12.35;;;;;;;6.05;71.85;97983.69;4992119;28;103316;-65
2024/02/27 06:58:11;;;;;;;22.10;12.15;;;;;;;6.13;72.18;97991.63;4979579;27;103359;-65
2024/02/27 07:00:38;;;;;;;21.67;12.40;;;;;;;6.08;71.57;97992.09;4973690;28;102737;-65
2024/02/27 07:03:07;;;;;;;19.98;12.35;;;;;;;6.10;71.74;97991.94;4973357;28;109120;-64
2024/02/27 07:05:36;;;;;;;27.63;13.32;;;;;;;6.05;72.12;97988.94;4992791;27;103854;-64
2024/02/27 07:08:19;;;;;;;21.38;13.10;;;;;;;5.98;72.08;97981.69;4975379;28;102870;-66
2024/02/27 07:10:47;;;;;;;21.48;12.98;;;;;;;6.13;72.10;97987.19;4976775;28;102850;-66
2024/02/27 07:13:15;;;;;;;20.35;12.10;;;;;;;6.24;72.19;97993.16;4973898;28;104591;-66
2024/02/27 07:15:44;;;;;;;19.58;12.20;;;;;;;6.34;72.16;97999.13;4974270;27;103466;-66
2024/02/27 07:18:15;;;;;;;23.67;12.75;;;;;;;6.28;72.28;98002.38;4989130;28;102641;-66
2024/02/27 07:20:46;;;;;;;20.17;12.63;;;;;;;6.26;72.32;98006.97;4996889;27;103563;-66
2024/02/27 07:23:15;;;;;;;23.15;13.18;;;;;;;6.35;72.28;98008.63;4989565;27;103295;-67
2024/02/27 07:25:43;;;;;;;23.65;13.55;;;;;;;6.25;72.20;98010.56;4990194;28;104195;-66
2024/02/27 07:28:12;;;;;;;22.67;12.82;;;;;;;6.34;72.35;98019.31;4972035;28;102769;-65
2024/02/27 07:30:50;;;;;;;23.42;13.40;;;;;;;6.27;72.45;98019.13;4988184;28;102680;-66
2024/02/27 07:33:19;;;;;;;25.83;14.90;;;;;;;6.27;73.16;98021.75;4973910;28;106098;-66
2024/02/27 07:35:49;;;;;;;22.67;13.75;;;;;;;6.30;73.09;98031.97;4984358;27;103403;-66
2024/02/27 07:38:20;;;;;;;24.45;13.50;;;;;;;6.43;72.92;98031.53;4992038;28;102700;-66
2024/02/27 07:40:50;;;;;;;20.05;13.05;;;;;;;6.36;72.76;98031.34;4973978;28;102810;-66
2024/02/27 07:43:18;;;;;;;23.98;13.50;;;;;;;6.38;73.11;98032.03;4996952;27;105046;-66
2024/02/27 07:45:51;;;;;;;30.33;13.40;;;;;;;6.49;71.83;98030.91;4987345;27;103228;-67
2024/02/27 07:52:54;;;;;;;24.13;13.15;;;;;;;6.62;71.92;98030.47;4982711;28;103385;-65
2024/02/27 07:55:22;;;;;;;26.63;14.35;;;;;;;6.44;71.45;98031.38;4989835;28;103714;-67
2024/02/27 08:10:50;;;;;;;21.90;12.77;;;;;;;6.90;69.86;98059.16;4984836;28;104188;-65
2024/02/27 08:13:19;;;;;;;23.98;14.18;;;;;;;6.75;70.78;98051.88;4986044;27;103229;-65
2024/02/27 08:15:51;;;;;;;21.52;12.80;;;;;;;6.75;70.04;98056.34;4986374;28;104264;-70
2024/02/27 08:18:19;;;;;;;21.60;13.18;;;;;;;6.96;69.33;98055.91;4978501;28;102672;-70
2024/02/27 08:20:49;;;;;;;21.10;13.80;;;;;;;6.74;69.48;98057.31;4972160;28;103702;-66
2024/02/27 08:23:17;;;;;;;19.75;12.35;;;;;;;7.20;69.20;98062.19;4973077;28;105519;-66
2024/02/27 08:25:45;;;;;;;21.63;12.43;;;;;;;7.28;68.65;98065.69;4989870;28;102922;-66
2024/02/27 08:28:15;;;;;;;22.35;13.35;;;;;;;7.19;68.83;98074.56;4990292;27;102819;-66
2024/02/27 08:30:43;;;;;;;22.58;13.30;;;;;;;7.33;67.86;98073.06;4988867;28;103322;-66
2024/02/27 08:33:12;;;;;;;22.33;12.95;;;;;;;7.50;68.05;98078.38;4990965;28;103322;-66
2024/02/27 08:35:40;;;;;;;20.92;13.23;;;;;;;7.61;68.01;98065.69;4985136;27;102725;-66
2024/02/27 08:38:08;;;;;;;23.45;13.27;;;;;;;7.82;67.60;98066.16;4962306;28;102949;-66
2024/02/27 08:40:38;;;;;;;21.85;12.95;;;;;;;7.56;68.24;98059.25;4955889;28;103511;-66
2024/02/27 08:43:07;;;;;;;21.42;13.18;;;;;;;7.42;67.95;98063.38;4969483;28;106143;-66
2024/02/27 08:45:37;;;;;;;21.30;13.30;;;;;;;7.42;67.65;98061.56;4967552;28;102866;-66
2024/02/27 08:48:05;;;;;;;20.70;12.75;;;;;;;7.58;67.37;98059.94;4969245;28;103134;-66
2024/02/27 08:50:34;;;;;;;21.70;12.88;;;;;;;7.59;67.62;98056.31;4978947;28;106439;-66
2024/02/27 08:53:02;;;;;;;20.55;13.18;;;;;;;7.42;68.02;98060.75;4972061;28;105386;-70
2024/02/27 08:55:31;;;;;;;19.58;12.25;;;;;;;7.38;67.21;98064.69;4976464;28;103112;-70
2024/02/27 08:57:59;;;;;;;21.25;13.30;;;;;;;7.17;68.61;98073.06;4983599;27;102736;-66
2024/02/27 09:00:28;;;;;;;27.20;13.55;;;;;;;7.35;67.74;98070.28;4992785;28;103351;-69
2024/02/27 09:02:58;;;;;;;20.85;13.52;;;;;;;7.07;68.29;98076.63;4973222;28;104439;-70
2024/02/27 09:05:26;;;;;;;19.92;12.13;;;;;;;7.46;67.90;98073.41;4987453;27;102649;-70
2024/02/27 09:07:55;;;;;;;20.40;11.90;;;;;;;7.77;67.60;98069.31;4961638;28;103347;-70
2024/02/27 09:10:24;;;;;;;24.42;13.70;;;;;;;7.77;66.71;98070.13;4954282;28;104112;-70
2024/02/27 09:12:52;;;;;;;21.10;13.30;;;;;;;7.28;68.34;98080.63;4985656;28;103442;-71
2024/02/27 09:15:20;;;;;;;20.60;13.77;;;;;;;7.37;68.29;98089.38;4957629;28;102801;-71
2024/02/27 09:17:48;;;;;;;20.75;12.65;;;;;;;7.83;67.79;98081.81;4979885;27;102827;-70
2024/02/27 09:20:18;;;;;;;25.02;13.70;;;;;;;7.71;67.24;98085.78;4965465;28;103237;-70
2024/02/27 09:22:46;;;;;;;22.67;14.38;;;;;;;7.61;68.35;98086.78;4988799;28;103350;-70
2024/02/27 09:25:14;;;;;;;21.67;14.02;;;;;;;7.75;67.79;98082.66;4986906;28;102709;-71
2024/02/27 09:27:42;;;;;;;24.77;13.90;;;;;;;7.45;67.74;98077.06;4971505;27;103215;-70
2024/02/27 09:30:11;;;;;;;22.77;13.80;;;;;;;7.59;68.27;98077.38;4986862;28;103845;-65
2024/02/27 09:32:39;;;;;;;22.45;13.82;;;;;;;7.84;68.33;98066.84;4972439;28;103109;-66
2024/02/27 09:35:08;;;;;;;20.38;13.73;;;;;;;8.04;68.23;98068.13;4989197;28;102687;-66
2024/02/27 09:37:38;;;;;;;23.20;14.30;;;;;;;7.83;68.31;98067.81;4972723;28;103282;-70
2024/02/27 09:40:08;;;;;;;22.25;14.55;;;;;;;7.80;68.37;98074.25;4994698;27;103146;-70
2024/02/27 09:42:39;;;;;;;21.17;13.45;;;;;;;8.03;68.65;98077.03;4988945;28;103183;-70
2024/02/27 09:45:09;;;;;;;21.08;13.27;;;;;;;7.85;68.52;98071.94;4978883;27;103045;-70
2024/02/27 09:47:45;;;;;;;22.85;15.18;;;;;;;7.83;67.90;98073.09;4987898;27;102961;-69
2024/02/27 09:50:19;;;;;;;22.00;14.07;;;;;;;8.05;68.33;98077.69;4970484;28;106003;-69
2024/02/27 09:52:51;;;;;;;22.33;14.25;;;;;;;7.81;68.19;98075.91;4990743;27;103157;-70
2024/02/27 09:55:20;;;;;;;24.20;15.15;;;;;;;7.71;69.91;98076.06;4979464;28;103337;-70
2024/02/27 09:57:49;;;;;;;26.48;15.20;;;;;;;7.70;69.71;98084.94;4971432;27;102776;-70
2024/02/27 10:00:18;;;;;;;25.05;14.75;;;;;;;7.74;68.87;98088.94;4976113;28;105580;-66
2024/02/27 10:02:49;;;;;;;23.80;14.73;;;;;;;7.93;67.95;98076.38;4969863;28;105999;-66
2024/02/27 10:05:20;;;;;;;23.60;15.95;;;;;;;8.12;68.23;98081.31;4991979;28;102691;-66
2024/02/27 10:07:51;;;;;;;24.33;14.98;;;;;;;8.05;68.13;98077.69;4980653;28;103783;-65
2024/02/27 10:10:20;;;;;;;22.35;15.02;;;;;;;7.84;67.91;98091.38;4982541;28;103271;-65
2024/02/27 10:12:48;;;;;;;20.95;14.27;;;;;;;7.96;67.83;98081.31;4982982;28;104138;-65
2024/02/27 10:15:16;;;;;;;21.90;14.20;;;;;;;7.90;67.74;98088.09;4988585;28;102650;-69
2024/02/27 10:17:46;;;;;;;23.08;14.77;;;;;;;8.49;67.68;98080.91;4993155;27;103822;-69
2024/02/27 10:20:19;;;;;;;25.17;15.48;;;;;;;8.18;67.23;98093.00;4990260;28;103262;-69
2024/02/27 10:22:48;;;;;;;23.73;15.25;;;;;;;8.38;67.15;98077.59;4984111;27;103541;-69
2024/02/27 10:25:18;;;;;;;23.15;15.30;;;;;;;8.36;66.42;98078.75;4959769;28;103532;-69
2024/02/27 10:27:47;;;;;;;20.98;14.07;;;;;;;8.36;67.23;98082.25;4970387;27;103225;-67
2024/02/27 10:30:15;;;;;;;23.50;14.73;;;;;;;8.07;66.28;98086.25;4988482;28;103271;-67
2024/02/27 10:32:44;;;;;;;27.00;15.20;;;;;;;8.37;66.80;98081.25;4989771;28;103356;-67
2024/02/27 10:35:13;;;;;;;23.85;15.32;;;;;;;8.65;65.95;98086.16;4988894;27;103109;-66
2024/02/27 10:37:43;;;;;;;23.95;14.65;;;;;;;8.64;66.09;98092.41;4975460;28;102796;-64
2024/02/27 10:40:12;;;;;;;18.80;12.65;;;;;;;9.03;66.00;98090.78;4983820;28;104425;-65
2024/02/27 10:42:42;;;;;;;20.80;14.20;;;;;;;8.48;66.48;98097.75;4970832;28;103251;-65
2024/02/27 10:45:11;;;;;;;20.48;13.10;;;;;;;8.77;65.90;98097.16;4995966;27;103037;-67
2024/02/27 10:47:42;;;;;;;24.77;14.63;;;;;;;8.86;65.10;98103.22;4984571;28;102742;-68
2024/02/27 10:50:15;;;;;;;21.85;14.70;;;;;;;8.79;65.84;98100.47;4968046;28;105207;-69
2024/02/27 10:52:45;;;;;;;24.20;15.20;;;;;;;8.82;65.45;98104.53;4985645;27;103191;-68
2024/02/27 10:55:15;;;;;;;22.17;15.38;;;;;;;8.81;65.33;98100.28;4981738;28;106102;-68
2024/02/27 10:57:45;;;;;;;21.42;13.57;;;;;;;9.00;65.04;98107.78;4972140;28;103048;-63
2024/02/27 11:00:15;;;;;;;26.35;15.80;;;;;;;9.19;65.13;98111.00;4970900;28;105149;-63
2024/02/27 11:02:49;;;;;;;26.80;16.75;;;;;;;8.90;66.22;98115.09;4988193;28;105767;-64
2024/02/27 11:05:20;;;;;;;24.85;15.50;;;;;;;8.54;66.43;98118.19;4989182;28;102765;-67
2024/02/27 11:07:51;;;;;;;23.75;16.67;;;;;;;8.58;66.59;98104.47;4968567;28;102780;-68
2024/02/27 11:10:19;;;;;;;25.60;17.20;;;;;;;8.53;67.23;98105.97;4987208;27;103447;-68
2024/02/27 11:12:52;;;;;;;26.25;17.40;;;;;;;8.91;65.82;98111.47;4989443;28;103843;-67
2024/02/27 11:15:22;;;;;;;26.02;17.13;;;;;;;8.92;66.14;98103.38;4990847;27;103138;-68
2024/02/27 11:17:55;;;;;;;28.77;18.98;;;;;;;8.94;65.07;98101.34;4982664;28;103180;-69
2024/02/27 11:20:25;;;;;;;24.35;15.60;;;;;;;9.37;65.29;98102.81;4970404;28;110116;-69
2024/02/27 11:22:55;;;;;;;27.85;18.95;;;;;;;9.44;64.94;98099.25;4990765;27;103239;-69
2024/02/27 11:25:23;;;;;;;29.05;19.08;;;;;;;9.25;65.77;98105.03;4974574;28;103607;-64
2024/02/27 11:27:55;;;;;;;28.92;17.80;;;;;;;9.15;65.69;98101.78;4971677;28;103417;-64
2024/02/27 11:30:25;;;;;;;26.42;17.88;;;;;;;8.79;66.57;98105.75;4990042;28;103818;-64
2024/02/27 11:32:53;;;;;;;23.92;16.83;;;;;;;9.13;65.14;98108.03;4988328;27;103385;-68
2024/02/27 11:35:22;;;;;;;24.35;16.77;;;;;;;9.09;66.01;98112.03;4993006;28;102714;-64
2024/02/27 11:37:50;;;;;;;28.95;17.85;;;;;;;9.45;64.97;98103.56;4990626;28;103881;-69
2024/02/27 11:40:45;;;;;;;28.80;17.40;;;;;;;9.67;64.53;98105.53;4976082;27;103387;-68
2024/02/27 11:43:15;;;;;;;31.90;19.77;;;;;;;9.24;64.62;98108.66;4985495;28;103253;-64
2024/02/27 11:45:44;;;;;;;26.52;17.88;;;;;;;9.22;66.24;98108.84;4968151;27;102907;-64
2024/02/27 11:48:12;;;;;;;29.52;18.60;;;;;;;9.10;65.53;98102.28;4990807;28;102780;-64
2024/02/27 11:50:47;;;;;;;26.08;18.33;;;;;;;9.05;66.13;98107.25;4988785;28;103238;-64
2024/02/27 11:53:43;;;;;;;26.88;18.42;;;;;;;9.16;66.12;98106.88;4988714;27;103210;-64
2024/02/27 11:56:13;;;;;;;26.77;18.38;;;;;;;8.88;66.68;98103.88;4938015;28;102997;-64
2024/02/27 11:58:42;;;;;;;27.95;19.45;;;;;;;9.01;65.91;98104.13;4990806;27;103113;-63
2024/02/27 12:01:14;;;;;;;27.98;19.15;;;;;;;9.11;66.40;98102.09;4960734;28;105495;-69
2024/02/27 12:03:44;;;;;;;29.50;18.50;;;;;;;9.04;65.34;98109.09;4980187;27;103231;-69
2024/02/27 12:06:15;;;;;;;26.85;18.10;;;;;;;8.84;66.00;98107.84;4984184;28;102765;-69
2024/02/27 12:08:47;;;;;;;25.60;17.45;;;;;;;8.89;66.74;98101.06;4969165;28;103090;-68
2024/02/27 12:11:16;;;;;;;30.85;19.05;;;;;;;8.83;66.47;98114.13;4980851;27;103538;-69
2024/02/27 12:13:47;;;;;;;29.73;18.73;;;;;;;8.84;66.73;98115.78;4979388;28;105599;-69
2024/02/27 12:16:22;;;;;;;25.08;17.67;;;;;;;9.00;65.87;98112.22;4990047;27;102653;-69
2024/02/27 12:18:49;;;;;;;26.55;17.90;;;;;;;8.81;67.12;98111.66;4985278;28;102699;-68
2024/02/27 12:21:28;;;;;;;27.25;17.60;;;;;;;8.76;66.91;98121.91;4986913;27;103127;-67
2024/02/27 12:24:12;;;;;;;32.33;18.95;;;;;;;8.69;67.01;98123.59;4958979;28;103491;-66
2024/02/27 12:26:41;;;;;;;28.47;19.17;;;;;;;8.58;67.15;98125.59;4948474;28;105174;-67
2024/02/27 12:29:15;;;;;;;29.27;19.02;;;;;;;8.77;66.61;98119.09;4956791;27;102798;-68
2024/02/27 12:31:43;;;;;;;27.52;18.42;;;;;;;8.63;67.17;98118.00;4961349;28;103247;-69
2024/02/27 12:34:12;;;;;;;33.63;19.80;;;;;;;8.62;67.36;98121.63;4967607;27;103787;-68